Station info - map view · info · telemetry · weather · raw · status · beacons · messages · bulletins · browse · moving · my account
Callsign, ship name or locator: Clear       
It is possible to search using wildcards (*?) after a prefix. Example: OH*
APRS station N111BN - show graphs
Map loading...
Comment: KG5QAC
Mic-E message: En route
Last status: MicroTrak FA v1.42
Location: 32°55.80' N 97°24.72' W - locator EM12HW03NF - show map - static map
3.2 miles Northeast bearing 37° from Eagle Mountain, Tarrant County, Texas, United States [?]
5.6 miles Northwest bearing 330° from Saginaw, Tarrant County, Texas, United States
15.1 miles North bearing 340° from Fort Worth, Tarrant County, Texas, United States
36.5 miles West bearing 286° from Dallas, Dallas County, Texas, United States
Last position: 2019-01-06 17:24:15 CST (16d 8h8m ago)
2019-01-06 17:24:15 CST local time at Eagle Mountain, United States [?]
Altitude: 801 ft
Course: 147°
Speed: 23 MPH
Last telemetry: 2019-01-06 17:24:15 CST (16d 8h8m ago) – show telemetry
Ch 1: 467, Ch 2: 605, Ch 3: 0, Ch 4: 0, Ch 5: 0
 1     2     3     4     5     6     7     8 
Device: Byonics: TinyTrak3 (tracker)
Last path: N111BN>SR5U8P via W5NGU-7,WIDE1*,WIDE2-1,qAO,W5CGC-10 (good)
Positions stored: 12866
Stations near current position of N111BN - show more
callsign distance last heard - CST      callsign distance last heard - CST
N247TD1.1 miles 149°2019-01-12 10:59:34 AF5EH2.2 miles 107°2019-01-23 01:20:01
WX5ATX2.4 miles 103°2019-01-09 02:21:20 WX5ATX-N2.4 miles 103°2019-01-09 02:17:01
dw37532.5 miles 251°2019-01-23 01:29:38 FW22062.9 miles 329°2019-01-14 18:22:49
KJ5RM-82.9 miles 5°2019-01-21 21:50:28 KB5GLV-63.1 miles 195°2019-01-21 13:54:11
KG5KUF-i3.2 miles 172°2018-12-27 21:38:56 KG5KUF-93.2 miles 172°2019-01-16 16:31:19
KB5GLV-43.5 miles 222°2019-01-04 23:28:07 EW54613.7 miles 202°2019-01-23 01:31:00
KB5HLV-63.9 miles 346°2019-01-17 17:36:20 AI4VW4.0 miles 157°2019-01-05 23:43:23
KG5KUF4.4 miles 292°2019-01-05 19:56:33 W5BYT4.6 miles 50°2019-01-23 01:31:45
K5YYZ-95.2 miles 135°2019-01-22 17:16:55 N5OGQ B5.5 miles 105°2019-01-21 05:20:25
N5OGQ-B5.5 miles 105°2019-01-21 05:20:35 KK6EOL-75.6 miles 158°2018-12-30 19:33:17
Stations which heard N111BN directly on radio –
callsign pkts first heard - CST last heard longest (tx => rx) longest at - CST
KG4YZY-10 7 2019-01-05 16:26:08 2019-01-05 19:02:03 EL96LS > EL88PG 147.0 miles 315° 2019-01-05 16:26:08
WC4PEM-9 6 2019-01-05 17:08:09 2019-01-05 18:13:47 EL89DP > EL98CE 151.6 miles 130° 2019-01-05 18:13:47
NI4CE-10 22 2019-01-05 16:05:34 2019-01-05 17:55:58 EL89KH > EL87VJ 143.6 miles 157° 2019-01-05 17:55:58
W4IZ-1 8 2019-01-05 17:35:07 2019-01-05 18:05:23 EL89HN > EL99IU 129.0 miles 80° 2019-01-05 18:05:23
W4NN-1 11 2019-01-05 19:25:30 2019-01-06 12:22:10 EM60SJ > EM60RL 6.6 miles 341° 2019-01-06 12:22:10
KD4MOJ-5 13 2019-01-05 17:55:31 2019-01-05 18:38:28 EL89LG > EM70PO 136.2 miles 313° 2019-01-05 17:55:31
WC4PEM-10 4 2019-01-05 16:06:26 2019-01-05 18:00:56 EL89IK > EL97CV 140.6 miles 140° 2019-01-05 18:00:56
WC4PEM-14 50 2019-01-05 16:14:05 2019-01-05 18:04:40 EL89HM > EL98EG 136.0 miles 130° 2019-01-05 18:04:40
KD4MOJ-7 1 2019-01-05 18:27:14 2019-01-05 18:27:14 EL79UT > EM70VO 54.4 miles 1° 2019-01-05 18:27:14
WC4PEM-12 2 2019-01-05 16:11:20 2019-01-05 16:38:42 EL96PJ > EL97FS 106.5 miles 331° 2019-01-05 16:11:20
WC4PEM-15 3 2019-01-05 16:09:08 2019-01-05 16:53:01 EL96QI > EL98EA 127.7 miles 333° 2019-01-05 16:09:08
K4PKT-3 1 2019-01-05 16:15:40 2019-01-05 16:15:40 EL96OM > EL96VT 42.3 miles 61° 2019-01-05 16:15:40
WC4PEM-13 1 2019-01-05 16:51:57 2019-01-05 16:51:57 EL97EO > EL97IS 21.7 miles 51° 2019-01-05 16:51:57
K4PKT-1 1 2019-01-05 15:55:39 2019-01-05 15:55:39 EL96TA > EL96NR 58.8 miles 324° 2019-01-05 15:55:39
K4AG 6 2019-01-05 15:53:37 2019-01-05 16:00:35 EL96SE > EL95TP 37.6 miles 169° 2019-01-05 16:00:35
KD6PJW 15 2019-01-06 13:49:09 2019-01-06 14:26:59 EM41SD > EM50GS 62.4 miles 115° 2019-01-06 14:26:59
KB5VE-7 4 2019-01-06 13:43:12 2019-01-06 14:43:54 EM41KH > EM51FK 93.1 miles 86° 2019-01-06 14:43:54
WB4MOZ-3 2 2019-01-05 16:04:35 2019-01-05 16:16:31 EL96NN > EL96VP 39.8 miles 81° 2019-01-05 16:16:31
N5THR-11 1 2019-01-06 16:54:03 2019-01-06 16:54:03 EM22AK > EM24TC 147.3 miles 38° 2019-01-06 16:54:03
KI4ELU-7 44 2019-01-05 19:05:00 2019-01-06 14:11:04 EM70EE > EM60DN 126.8 miles 282° 2019-01-05 19:05:00
K4OZS-10 22 2019-01-05 16:49:04 2019-01-05 18:51:18 EL79RV > EL89XC 159.4 miles 109° 2019-01-05 18:51:18
K3OCM-6 5 2019-01-05 16:01:36 2019-01-05 17:05:15 EL97BX > EL96DD 129.6 miles 175° 2019-01-05 17:05:15
W4KBW 5 2019-01-05 17:04:15 2019-01-05 17:27:28 EL88TO > EL98HN 61.4 miles 91° 2019-01-05 17:27:28
KG9B-8 17 2019-01-05 16:26:28 2019-01-05 16:55:18 EL97DQ > EL86XV 60.3 miles 199° 2019-01-05 16:55:18
N9JY-1 4 2019-01-05 16:48:20 2019-01-05 17:06:14 EL97FM > EL98OL 81.3 miles 33° 2019-01-05 16:48:20
K4AG-6 1 2019-01-05 16:12:03 2019-01-05 16:12:03 EL96PK > EL95TS 52.6 miles 154° 2019-01-05 16:12:03
N4RTD 17 2019-01-05 16:52:19 2019-01-05 17:22:09 EL88UL > EL87UT 47.0 miles 184° 2019-01-05 17:22:09
AE4S 2 2019-01-05 18:18:16 2019-01-05 18:28:13 EL89BQ > EM70UL 57.7 miles 338° 2019-01-05 18:18:16
N4FLA-3 1 2019-01-05 17:01:51 2019-01-05 17:01:51 EL97FM > EL98CP 81.6 miles 350° 2019-01-05 17:01:51
N4SAR 26 2019-01-06 12:34:46 2019-01-06 13:39:12 EM50SP > EM60IL 69.1 miles 99° 2019-01-06 13:39:12
W5UOK-10 19 2019-01-06 16:22:23 2019-01-06 16:52:14 EM22LF > EM11XK 79.8 miles 226° 2019-01-06 16:22:23
K5PRC-11 3 2019-01-06 13:47:11 2019-01-06 14:30:58 EM41RE > EM50FR 67.8 miles 119° 2019-01-06 14:30:58
KD5KNR 2 2019-01-06 17:21:50 2019-01-06 17:22:35 EM12HW > EM12KU 17.5 miles 116° 2019-01-06 17:22:35
WB5NIN-5 14 2019-01-06 15:04:47 2019-01-06 15:56:31 EM22XA > EM32PF 77.2 miles 78° 2019-01-06 15:56:31
K5KRK 4 2019-01-06 15:32:34 2019-01-06 16:49:34 EM31MS > EM21EW 156.9 miles 274° 2019-01-06 15:32:34
KD5QZD-1 5 2019-01-06 14:27:43 2019-01-06 14:36:28 EM41RE > EL49XW 91.2 miles 161° 2019-01-06 14:36:28
KD5QZD-12 3 2019-01-06 14:53:52 2019-01-06 14:56:51 EM41EL > EM40OL 84.7 miles 143° 2019-01-06 14:56:51
W4IAX-7 14 2019-01-06 12:54:33 2019-01-06 14:10:29 EM50GW > EM60CQ 99.9 miles 99° 2019-01-06 14:10:29
W5NGU-7 1 2019-01-06 17:24:15 2019-01-06 17:24:15 EM12HW > EM13HL 38.5 miles 360° 2019-01-06 17:24:15
KG4WKX-1 46 2019-01-05 17:23:08 2019-01-05 18:31:29 EL79VS > EL89NJ 85.5 miles 108° 2019-01-05 18:26:13
WR4SG-1 2 2019-01-05 18:31:13 2019-01-05 18:32:13 EL79SU > EM81IF 117.4 miles 37° 2019-01-05 18:32:13
KK4EQF-12 7 2019-01-05 17:09:13 2019-01-05 17:35:04 EL88QT > EL87OX 59.1 miles 194° 2019-01-05 17:35:04
W5ETX-10 8 2019-01-06 16:17:25 2019-01-06 16:45:16 EM12XK > EM22II 41.9 miles 99° 2019-01-06 16:45:16
W4DFU-3 26 2019-01-05 17:36:05 2019-01-05 18:37:54 EL79VS > EL89TP 112.9 miles 95° 2019-01-05 18:37:54
W5TMP-8 2 2019-01-06 15:14:44 2019-01-06 15:35:38 EM31TP > EM31ID 65.3 miles 239° 2019-01-06 15:14:44
W4SJV-10 10 2019-01-06 12:29:47 2019-01-06 12:48:42 EM60GJ > EM60NK 33.5 miles 88° 2019-01-06 12:48:42
W5NRU 7 2019-01-06 13:36:13 2019-01-06 14:04:05 EM50TO > EM51JP 88.1 miles 324° 2019-01-06 13:36:13
KK4DIV-10 27 2019-01-05 18:36:10 2019-01-05 19:09:59 EL79QV > EM70EF 66.9 miles 291° 2019-01-05 18:36:10
W4LCO-1 6 2019-01-05 16:03:35 2019-01-05 16:40:23 EL96RF > EL96CO 82.5 miles 289° 2019-01-05 16:03:35
KF4TPM 2 2019-01-05 17:45:01 2019-01-05 18:01:56 EL89NB > EM80MD 74.9 miles 357° 2019-01-05 17:45:01
K5TYR-10 14 2019-01-06 15:50:33 2019-01-06 16:15:26 EM31CX > EM22HG 95.8 miles 283° 2019-01-06 15:50:33
W4CJB 10 2019-01-05 19:02:01 2019-01-05 19:14:57 EM70EE > EM60WR 49.1 miles 323° 2019-01-05 19:02:01
AF5II-10 1 2019-01-06 14:06:04 2019-01-06 14:06:04 EM50FW > EM51JE 26.4 miles 49° 2019-01-06 14:06:04
KD5QZD-7 30 2019-01-06 15:23:41 2019-01-06 16:14:26 EM31PR > EM32BK 84.3 miles 307° 2019-01-06 15:23:41
KK4WTW 2 2019-01-06 12:40:44 2019-01-06 12:48:20 EM60MJ > EM60HS 32.9 miles 321° 2019-01-06 12:40:44
N4EMA 8 2019-01-05 18:30:13 2019-01-05 19:22:55 EL79TT > EM60WR 119.6 miles 301° 2019-01-05 18:30:13
K4SRC-10 72 2019-01-05 18:49:11 2019-01-06 13:50:11 EM70MA > EM60LO 130.3 miles 289° 2019-01-05 18:49:11
W0DLM-10 1 2019-01-05 17:24:08 2019-01-05 17:24:08 EL88UM > EL88TE 23.5 miles 191° 2019-01-05 17:24:08
KD5CQB-2 9 2019-01-06 14:57:50 2019-01-06 15:12:46 EM31UO > EM40MN 104.0 miles 133° 2019-01-06 15:12:46
KK4QIG 9 2019-01-05 17:50:38 2019-01-05 18:19:05 EL89GN > EL89XT 85.4 miles 78° 2019-01-05 18:19:05
K4PKT-2 1 2019-01-05 16:06:35 2019-01-05 16:06:35 EL96QH > EL97TC 57.7 miles 14° 2019-01-05 16:06:35
KD4BBM-10 3 2019-01-05 15:50:59 2019-01-05 15:57:36 EL96TC > EL96WF 21.7 miles 68° 2019-01-05 15:57:36
KF5CLZ-10 1 2019-01-06 13:51:09 2019-01-06 13:51:09 EM50MS > EM50HJ 35.9 miles 223° 2019-01-06 13:51:09
W5CGC-10 2 2019-01-06 17:14:08 2019-01-06 17:22:58 EM12GW > EM13KA 15.7 miles 76° 2019-01-06 17:22:58
KM4SRN-10 16 2019-01-05 19:15:57 2019-01-06 12:33:46 EM60OJ > EM60SM 22.9 miles 65° 2019-01-06 12:33:46
KC5DR-5 10 2019-01-06 14:59:49 2019-01-06 15:31:39 EM41DL > EM32UL 74.5 miles 334° 2019-01-06 14:59:49
KG5VDG 1 2019-01-06 16:20:44 2019-01-06 16:20:44 EM31QR > EM31ID 53.7 miles 224° 2019-01-06 16:20:44
W5CWT-15 1 2019-01-06 16:16:25 2019-01-06 16:16:25 EM22OE > EM22OD 3.0 miles 160° 2019-01-06 16:16:25
N4DJJ-2 2 2019-01-05 16:08:33 2019-01-05 16:24:28 EL96QI > EL96FG 55.4 miles 263° 2019-01-05 16:08:33
K5ROK-1 1 2019-01-06 14:55:52 2019-01-06 14:55:52 EM41FK > EM32MK 107.3 miles 310° 2019-01-06 14:55:52
KI5MM-10 29 2019-01-06 16:37:19 2019-01-06 17:17:07 EM22DJ > EM12ME 75.3 miles 260° 2019-01-06 16:37:19
WA5JRS-10 7 2019-01-06 17:06:10 2019-01-06 17:22:50 EM12GW > EM12KN 32.6 miles 144° 2019-01-06 17:20:30
KF5BYG-10 1 2019-01-06 17:20:35 2019-01-06 17:20:35 EM12GW > EM12IN 27.1 miles 159° 2019-01-06 17:20:35
KN4EOG-10 4 2019-01-05 16:10:33 2019-01-05 16:32:26 EL96PJ > EL96CI 66.4 miles 267° 2019-01-05 16:10:33
KW4TOM 6 2019-01-06 12:41:44 2019-01-06 12:50:41 EM60FK > EM60KJ 26.5 miles 94° 2019-01-06 12:50:41
KG5FQT-1 42 2019-01-06 14:02:05 2019-01-06 14:51:51 EM41GJ > EM40QB 104.4 miles 154° 2019-01-06 14:51:51
K4DKK-11 8 2019-01-05 17:16:11 2019-01-05 18:02:11 EL88OW > EL88PE 52.7 miles 176° 2019-01-05 18:02:11
W5WK-13 4 2019-01-06 17:15:07 2019-01-06 17:21:46 EM12HW > EM12HL 29.9 miles 180° 2019-01-06 17:21:46
KD5WMA 1 2019-01-06 17:20:05 2019-01-06 17:20:05 EM12HW > EM12IU 9.2 miles 126° 2019-01-06 17:20:05

Only position packets which were originated by the station are shown here. The range statistics show some extra long hops, because some digipeaters do not correctly add themselves to the digipeater path. Please check the raw packets.
About this site
This page shows real-time information collected from the Automatic Position Reporting System Internet network (APRS-IS). APRS is used by amateur (ham) radio operators to transmit real-time position information, weather data, telemetry and messages over the radio. A vehicle equipped with a GPS receiver, a VHF transmitter or HF transceiver and a small computer device called a tracker transmits it's location, speed and course in a small data packet, which is then received by a nearby iGate receiving site which forwards the packet on the Internet. Systems connected to the Internet can send information on the APRS-IS without a radio transmitter, or collect and display information transmitted anywhere in the world.
FAQ · Blog · Discussion group · Linking to aprs.fi · AIS sites · Service status · Database statistics · Advertising on aprs.fi · Technical details · API · Change log · Planned changes · Credits and thanks · Terms Of Service · iPhone/iPad APRS